sensor_id;sensor_type;location;lat;lon;timestamp;temperature;humidity
52301;DHT22;38528;53.214;6.562;2022-10-31T00:02:20;14.00;99.90
52301;DHT22;38528;53.214;6.562;2022-10-31T00:04:46;13.90;99.90
52301;DHT22;38528;53.214;6.562;2022-10-31T00:07:12;13.90;99.90
52301;DHT22;38528;53.214;6.562;2022-10-31T00:09:37;13.80;99.90
52301;DHT22;38528;53.214;6.562;2022-10-31T00:12:03;13.80;99.90
52301;DHT22;38528;53.214;6.562;2022-10-31T00:14:29;13.90;99.90
52301;DHT22;38528;53.214;6.562;2022-10-31T00:16:54;13.90;99.90
52301;DHT22;38528;53.214;6.562;2022-10-31T00:19:20;14.00;99.90
52301;DHT22;38528;53.214;6.562;2022-10-31T00:21:46;13.90;99.90
52301;DHT22;38528;53.214;6.562;2022-10-31T00:24:11;13.80;99.90
52301;DHT22;38528;53.214;6.562;2022-10-31T00:26:37;13.80;99.90
52301;DHT22;38528;53.214;6.562;2022-10-31T00:29:03;13.60;99.90
52301;DHT22;38528;53.214;6.562;2022-10-31T00:31:29;13.70;99.90
52301;DHT22;38528;53.214;6.562;2022-10-31T00:33:55;13.60;99.90
52301;DHT22;38528;53.214;6.562;2022-10-31T00:36:21;13.60;99.90
52301;DHT22;38528;53.214;6.562;2022-10-31T00:38:47;13.60;99.90
52301;DHT22;38528;53.214;6.562;2022-10-31T00:41:15;14.40;99.90
52301;DHT22;38528;53.214;6.562;2022-10-31T00:43:42;13.50;99.90
52301;DHT22;38528;53.214;6.562;2022-10-31T00:46:08;13.50;99.90
52301;DHT22;38528;53.214;6.562;2022-10-31T00:48:34;13.40;99.90
52301;DHT22;38528;53.214;6.562;2022-10-31T00:51:00;13.50;99.90
52301;DHT22;38528;53.214;6.562;2022-10-31T00:53:25;13.40;99.90
52301;DHT22;38528;53.214;6.562;2022-10-31T00:55:51;13.50;99.90
52301;DHT22;38528;53.214;6.562;2022-10-31T00:58:17;13.60;99.90
52301;DHT22;38528;53.214;6.562;2022-10-31T01:00:42;13.30;99.90
52301;DHT22;38528;53.214;6.562;2022-10-31T01:03:08;13.30;99.90
52301;DHT22;38528;53.214;6.562;2022-10-31T01:05:34;13.30;99.90
52301;DHT22;38528;53.214;6.562;2022-10-31T01:08:01;13.30;99.90
52301;DHT22;38528;53.214;6.562;2022-10-31T01:10:26;13.30;99.90
52301;DHT22;38528;53.214;6.562;2022-10-31T01:12:52;13.30;99.90
52301;DHT22;38528;53.214;6.562;2022-10-31T01:15:20;13.30;99.90
52301;DHT22;38528;53.214;6.562;2022-10-31T01:17:46;13.20;99.90
52301;DHT22;38528;53.214;6.562;2022-10-31T01:20:14;13.20;99.90
52301;DHT22;38528;53.214;6.562;2022-10-31T01:22:40;13.20;99.90
52301;DHT22;38528;53.214;6.562;2022-10-31T01:25:07;13.20;99.90
52301;DHT22;38528;53.214;6.562;2022-10-31T01:27:33;13.20;99.90
52301;DHT22;38528;53.214;6.562;2022-10-31T01:29:59;13.20;99.90
52301;DHT22;38528;53.214;6.562;2022-10-31T01:32:25;13.20;99.90
52301;DHT22;38528;53.214;6.562;2022-10-31T01:34:52;13.20;99.90
52301;DHT22;38528;53.214;6.562;2022-10-31T01:37:17;13.20;99.90
52301;DHT22;38528;53.214;6.562;2022-10-31T01:39:43;13.10;99.90
52301;DHT22;38528;53.214;6.562;2022-10-31T01:42:18;13.10;99.90
52301;DHT22;38528;53.214;6.562;2022-10-31T01:44:49;13.20;99.90
52301;DHT22;38528;53.214;6.562;2022-10-31T01:47:18;13.10;99.90
52301;DHT22;38528;53.214;6.562;2022-10-31T01:50:09;13.00;99.90
52301;DHT22;38528;53.214;6.562;2022-10-31T01:52:35;13.10;99.90
52301;DHT22;38528;53.214;6.562;2022-10-31T01:57:33;13.00;99.90
52301;DHT22;38528;53.214;6.562;2022-10-31T02:00:03;13.00;99.90
52301;DHT22;38528;53.214;6.562;2022-10-31T02:02:30;13.00;99.90
52301;DHT22;38528;53.214;6.562;2022-10-31T02:04:59;12.90;99.90
52301;DHT22;38528;53.214;6.562;2022-10-31T02:07:31;12.90;99.90
52301;DHT22;38528;53.214;6.562;2022-10-31T02:10:00;12.90;99.90
52301;DHT22;38528;53.214;6.562;2022-10-31T02:12:28;12.90;99.90
52301;DHT22;38528;53.214;6.562;2022-10-31T02:14:55;12.80;99.90
52301;DHT22;38528;53.214;6.562;2022-10-31T02:17:21;12.90;99.90
52301;DHT22;38528;53.214;6.562;2022-10-31T02:22:30;12.90;99.90
52301;DHT22;38528;53.214;6.562;2022-10-31T02:33:53;12.80;99.90
52301;DHT22;38528;53.214;6.562;2022-10-31T02:39:22;12.70;99.90
52301;DHT22;38528;53.214;6.562;2022-10-31T02:42:01;12.70;99.90
52301;DHT22;38528;53.214;6.562;2022-10-31T02:44:50;12.70;99.90
52301;DHT22;38528;53.214;6.562;2022-10-31T02:47:21;12.60;99.90
52301;DHT22;38528;53.214;6.562;2022-10-31T02:49:59;12.60;99.90
52301;DHT22;38528;53.214;6.562;2022-10-31T02:52:29;12.60;99.90
52301;DHT22;38528;53.214;6.562;2022-10-31T02:54:55;12.60;99.90
52301;DHT22;38528;53.214;6.562;2022-10-31T02:57:24;12.60;99.90
52301;DHT22;38528;53.214;6.562;2022-10-31T02:59:55;12.60;99.90
52301;DHT22;38528;53.214;6.562;2022-10-31T03:08:49;12.50;99.90
52301;DHT22;38528;53.214;6.562;2022-10-31T03:11:00;12.60;99.90
52301;DHT22;38528;53.214;6.562;2022-10-31T03:18:37;12.50;99.90
52301;DHT22;38528;53.214;6.562;2022-10-31T03:21:18;12.50;99.90
52301;DHT22;38528;53.214;6.562;2022-10-31T03:23:46;12.40;99.90
52301;DHT22;38528;53.214;6.562;2022-10-31T03:26:13;12.40;99.90
52301;DHT22;38528;53.214;6.562;2022-10-31T03:31:17;12.30;99.90
52301;DHT22;38528;53.214;6.562;2022-10-31T03:33:44;12.30;99.90
52301;DHT22;38528;53.214;6.562;2022-10-31T03:36:13;12.30;99.90
52301;DHT22;38528;53.214;6.562;2022-10-31T03:38:41;12.30;99.90
52301;DHT22;38528;53.214;6.562;2022-10-31T03:41:11;12.30;99.90
52301;DHT22;38528;53.214;6.562;2022-10-31T03:43:42;12.40;99.90
52301;DHT22;38528;53.214;6.562;2022-10-31T03:46:08;12.40;99.90
52301;DHT22;38528;53.214;6.562;2022-10-31T03:48:34;12.40;99.90
52301;DHT22;38528;53.214;6.562;2022-10-31T03:51:16;12.40;99.90
52301;DHT22;38528;53.214;6.562;2022-10-31T03:54:03;12.40;99.90
52301;DHT22;38528;53.214;6.562;2022-10-31T03:56:41;12.40;99.90
52301;DHT22;38528;53.214;6.562;2022-10-31T03:59:21;12.30;99.90
52301;DHT22;38528;53.214;6.562;2022-10-31T04:01:53;12.30;99.90
52301;DHT22;38528;53.214;6.562;2022-10-31T04:04:19;12.30;99.90
52301;DHT22;38528;53.214;6.562;2022-10-31T04:06:46;13.10;99.90
52301;DHT22;38528;53.214;6.562;2022-10-31T04:09:14;12.30;99.90
52301;DHT22;38528;53.214;6.562;2022-10-31T04:11:48;12.30;99.90
52301;DHT22;38528;53.214;6.562;2022-10-31T04:14:15;12.30;99.90
52301;DHT22;38528;53.214;6.562;2022-10-31T04:16:42;12.20;99.90
52301;DHT22;38528;53.214;6.562;2022-10-31T04:19:12;12.20;99.90
52301;DHT22;38528;53.214;6.562;2022-10-31T04:21:38;12.20;99.90
52301;DHT22;38528;53.214;6.562;2022-10-31T04:24:04;12.20;99.90
52301;DHT22;38528;53.214;6.562;2022-10-31T04:26:29;12.10;99.90
52301;DHT22;38528;53.214;6.562;2022-10-31T04:28:55;12.10;99.90
52301;DHT22;38528;53.214;6.562;2022-10-31T04:31:21;12.10;99.90
52301;DHT22;38528;53.214;6.562;2022-10-31T04:33:46;12.10;99.90
52301;DHT22;38528;53.214;6.562;2022-10-31T04:36:12;12.50;99.90
52301;DHT22;38528;53.214;6.562;2022-10-31T04:38:38;12.00;99.90
52301;DHT22;38528;53.214;6.562;2022-10-31T04:41:04;12.40;99.90
52301;DHT22;38528;53.214;6.562;2022-10-31T04:43:30;12.00;99.90
52301;DHT22;38528;53.214;6.562;2022-10-31T04:45:56;12.00;99.90
52301;DHT22;38528;53.214;6.562;2022-10-31T04:48:22;12.00;99.90
52301;DHT22;38528;53.214;6.562;2022-10-31T04:50:47;11.90;99.90
52301;DHT22;38528;53.214;6.562;2022-10-31T04:53:13;12.00;99.90
52301;DHT22;38528;53.214;6.562;2022-10-31T04:55:39;11.90;99.90
52301;DHT22;38528;53.214;6.562;2022-10-31T04:58:04;11.90;99.90
52301;DHT22;38528;53.214;6.562;2022-10-31T05:00:30;12.00;99.90
52301;DHT22;38528;53.214;6.562;2022-10-31T05:02:57;12.70;99.90
52301;DHT22;38528;53.214;6.562;2022-10-31T05:05:28;12.60;99.90
52301;DHT22;38528;53.214;6.562;2022-10-31T05:07:54;12.20;99.90
52301;DHT22;38528;53.214;6.562;2022-10-31T05:10:23;11.80;99.90
52301;DHT22;38528;53.214;6.562;2022-10-31T05:12:55;11.80;99.90
52301;DHT22;38528;53.214;6.562;2022-10-31T05:15:22;11.80;99.90
52301;DHT22;38528;53.214;6.562;2022-10-31T05:17:48;11.80;99.90
52301;DHT22;38528;53.214;6.562;2022-10-31T05:20:16;11.80;99.90
52301;DHT22;38528;53.214;6.562;2022-10-31T05:22:47;11.70;99.90
52301;DHT22;38528;53.214;6.562;2022-10-31T05:25:13;11.70;99.90
52301;DHT22;38528;53.214;6.562;2022-10-31T05:27:44;11.70;99.90
52301;DHT22;38528;53.214;6.562;2022-10-31T05:30:12;11.60;99.90
52301;DHT22;38528;53.214;6.562;2022-10-31T05:32:44;11.70;99.90
52301;DHT22;38528;53.214;6.562;2022-10-31T05:35:14;11.60;99.90
52301;DHT22;38528;53.214;6.562;2022-10-31T05:37:39;11.60;99.90
52301;DHT22;38528;53.214;6.562;2022-10-31T05:40:07;11.60;99.90
52301;DHT22;38528;53.214;6.562;2022-10-31T05:42:33;11.60;99.90
52301;DHT22;38528;53.214;6.562;2022-10-31T05:44:59;12.20;99.90
52301;DHT22;38528;53.214;6.562;2022-10-31T05:47:25;11.50;99.90
52301;DHT22;38528;53.214;6.562;2022-10-31T05:49:51;11.60;99.90
52301;DHT22;38528;53.214;6.562;2022-10-31T05:52:18;11.60;99.90
52301;DHT22;38528;53.214;6.562;2022-10-31T05:54:44;11.60;99.90
52301;DHT22;38528;53.214;6.562;2022-10-31T05:57:09;11.60;99.90
52301;DHT22;38528;53.214;6.562;2022-10-31T05:59:35;11.60;99.90
52301;DHT22;38528;53.214;6.562;2022-10-31T06:02:00;11.60;99.90
52301;DHT22;38528;53.214;6.562;2022-10-31T06:04:26;11.50;99.90
52301;DHT22;38528;53.214;6.562;2022-10-31T06:06:52;11.50;99.90
52301;DHT22;38528;53.214;6.562;2022-10-31T06:09:17;11.50;99.90
52301;DHT22;38528;53.214;6.562;2022-10-31T06:11:43;11.50;99.90
52301;DHT22;38528;53.214;6.562;2022-10-31T06:14:09;11.40;99.90
52301;DHT22;38528;53.214;6.562;2022-10-31T06:16:34;11.50;99.90
52301;DHT22;38528;53.214;6.562;2022-10-31T06:19:00;11.50;99.90
52301;DHT22;38528;53.214;6.562;2022-10-31T06:21:26;11.50;99.90
52301;DHT22;38528;53.214;6.562;2022-10-31T06:23:51;11.50;99.90
52301;DHT22;38528;53.214;6.562;2022-10-31T06:26:17;11.50;99.90
52301;DHT22;38528;53.214;6.562;2022-10-31T06:28:43;11.50;99.90
52301;DHT22;38528;53.214;6.562;2022-10-31T06:31:09;11.40;99.90
52301;DHT22;38528;53.214;6.562;2022-10-31T06:33:34;11.50;99.90
52301;DHT22;38528;53.214;6.562;2022-10-31T06:36:00;11.50;99.90
52301;DHT22;38528;53.214;6.562;2022-10-31T06:38:27;11.50;99.90
52301;DHT22;38528;53.214;6.562;2022-10-31T06:40:54;12.10;99.90
52301;DHT22;38528;53.214;6.562;2022-10-31T06:43:21;11.30;99.90
52301;DHT22;38528;53.214;6.562;2022-10-31T06:45:47;10.90;99.90
52301;DHT22;38528;53.214;6.562;2022-10-31T06:48:12;11.50;99.90
52301;DHT22;38528;53.214;6.562;2022-10-31T06:50:39;11.60;99.90
52301;DHT22;38528;53.214;6.562;2022-10-31T06:53:04;11.60;99.90
52301;DHT22;38528;53.214;6.562;2022-10-31T06:55:30;11.70;99.90
52301;DHT22;38528;53.214;6.562;2022-10-31T06:57:58;11.70;99.90
52301;DHT22;38528;53.214;6.562;2022-10-31T07:00:25;10.90;99.90
52301;DHT22;38528;53.214;6.562;2022-10-31T07:05:24;11.80;99.90
52301;DHT22;38528;53.214;6.562;2022-10-31T07:07:54;11.80;99.90
52301;DHT22;38528;53.214;6.562;2022-10-31T07:10:20;11.80;99.90
52301;DHT22;38528;53.214;6.562;2022-10-31T07:12:46;11.90;99.90
52301;DHT22;38528;53.214;6.562;2022-10-31T07:15:12;11.80;99.90
52301;DHT22;38528;53.214;6.562;2022-10-31T07:17:37;11.90;99.90
52301;DHT22;38528;53.214;6.562;2022-10-31T07:20:03;11.80;99.90
52301;DHT22;38528;53.214;6.562;2022-10-31T07:22:34;11.80;99.90
52301;DHT22;38528;53.214;6.562;2022-10-31T07:25:00;11.90;99.90
52301;DHT22;38528;53.214;6.562;2022-10-31T07:27:26;11.90;99.90
52301;DHT22;38528;53.214;6.562;2022-10-31T07:29:52;12.00;99.90
52301;DHT22;38528;53.214;6.562;2022-10-31T07:32:18;11.90;99.90
52301;DHT22;38528;53.214;6.562;2022-10-31T07:34:43;11.90;99.90
52301;DHT22;38528;53.214;6.562;2022-10-31T07:37:09;11.90;99.90
52301;DHT22;38528;53.214;6.562;2022-10-31T07:39:35;11.90;99.90
52301;DHT22;38528;53.214;6.562;2022-10-31T07:42:00;12.00;99.90
52301;DHT22;38528;53.214;6.562;2022-10-31T07:44:26;12.10;99.90
52301;DHT22;38528;53.214;6.562;2022-10-31T07:46:52;12.10;99.90
52301;DHT22;38528;53.214;6.562;2022-10-31T07:49:17;12.20;99.90
52301;DHT22;38528;53.214;6.562;2022-10-31T07:51:43;12.40;99.90
52301;DHT22;38528;53.214;6.562;2022-10-31T07:54:09;12.60;99.90
52301;DHT22;38528;53.214;6.562;2022-10-31T07:56:35;12.70;99.90
52301;DHT22;38528;53.214;6.562;2022-10-31T07:59:00;13.00;99.90
52301;DHT22;38528;53.214;6.562;2022-10-31T10:44:45;13.10;99.90
52301;DHT22;38528;53.214;6.562;2022-10-31T10:47:57;25.90;99.90
52301;DHT22;38528;53.214;6.562;2022-10-31T13:24:16;19.30;99.90
52301;DHT22;38528;53.214;6.562;2022-10-31T13:26:43;18.20;99.90
52301;DHT22;38528;53.214;6.562;2022-10-31T13:29:20;18.10;99.90
52301;DHT22;38528;53.214;6.562;2022-10-31T13:31:47;18.00;99.90
52301;DHT22;38528;53.214;6.562;2022-10-31T13:34:29;17.90;99.90
52301;DHT22;38528;53.214;6.562;2022-10-31T13:37:26;17.80;99.90
52301;DHT22;38528;53.214;6.562;2022-10-31T13:40:24;17.70;99.90
52301;DHT22;38528;53.214;6.562;2022-10-31T13:45:53;17.70;99.90
52301;DHT22;38528;53.214;6.562;2022-10-31T13:51:09;17.70;99.90
52301;DHT22;38528;53.214;6.562;2022-10-31T13:53:44;17.60;99.90
52301;DHT22;38528;53.214;6.562;2022-10-31T13:56:26;17.60;99.90
52301;DHT22;38528;53.214;6.562;2022-10-31T14:01:22;17.60;99.90
52301;DHT22;38528;53.214;6.562;2022-10-31T14:04:17;17.60;99.90
52301;DHT22;38528;53.214;6.562;2022-10-31T14:07:04;17.70;99.90
52301;DHT22;38528;53.214;6.562;2022-10-31T14:10:06;17.70;99.90
52301;DHT22;38528;53.214;6.562;2022-10-31T14:12:33;17.60;99.90
52301;DHT22;38528;53.214;6.562;2022-10-31T14:15:14;17.60;99.90
52301;DHT22;38528;53.214;6.562;2022-10-31T14:22:40;17.50;99.90
52301;DHT22;38528;53.214;6.562;2022-10-31T14:25:25;17.40;99.90
52301;DHT22;38528;53.214;6.562;2022-10-31T14:27:51;17.30;99.90
52301;DHT22;38528;53.214;6.562;2022-10-31T14:30:22;17.30;99.90
52301;DHT22;38528;53.214;6.562;2022-10-31T14:33:01;17.20;99.90
52301;DHT22;38528;53.214;6.562;2022-10-31T14:36:05;17.20;99.90
52301;DHT22;38528;53.214;6.562;2022-10-31T14:38:42;17.20;99.90
52301;DHT22;38528;53.214;6.562;2022-10-31T14:41:32;17.20;99.90
52301;DHT22;38528;53.214;6.562;2022-10-31T14:44:32;17.20;99.90
52301;DHT22;38528;53.214;6.562;2022-10-31T14:52:27;17.10;99.90
52301;DHT22;38528;53.214;6.562;2022-10-31T14:54:54;17.10;99.90
52301;DHT22;38528;53.214;6.562;2022-10-31T14:57:34;17.00;99.90
52301;DHT22;38528;53.214;6.562;2022-10-31T15:00:05;17.00;99.90
52301;DHT22;38528;53.214;6.562;2022-10-31T15:02:44;17.00;99.90
52301;DHT22;38528;53.214;6.562;2022-10-31T15:05:17;16.90;99.90
52301;DHT22;38528;53.214;6.562;2022-10-31T15:07:51;16.80;99.90
52301;DHT22;38528;53.214;6.562;2022-10-31T15:12:51;16.10;99.90
52301;DHT22;38528;53.214;6.562;2022-10-31T15:15:22;16.70;99.90
52301;DHT22;38528;53.214;6.562;2022-10-31T15:17:56;16.70;99.90
52301;DHT22;38528;53.214;6.562;2022-10-31T15:20:25;16.70;99.90
52301;DHT22;38528;53.214;6.562;2022-10-31T15:22:52;16.60;99.90
52301;DHT22;38528;53.214;6.562;2022-10-31T15:25:20;16.60;99.90
52301;DHT22;38528;53.214;6.562;2022-10-31T15:27:48;16.50;99.90
52301;DHT22;38528;53.214;6.562;2022-10-31T15:30:25;16.50;99.90
52301;DHT22;38528;53.214;6.562;2022-10-31T15:32:54;16.50;99.90
52301;DHT22;38528;53.214;6.562;2022-10-31T15:35:28;16.40;99.90
52301;DHT22;38528;53.214;6.562;2022-10-31T15:37:56;16.40;99.90
52301;DHT22;38528;53.214;6.562;2022-10-31T15:40:24;16.40;99.90
52301;DHT22;38528;53.214;6.562;2022-10-31T15:42:56;16.30;99.90
52301;DHT22;38528;53.214;6.562;2022-10-31T15:45:24;16.40;99.90
52301;DHT22;38528;53.214;6.562;2022-10-31T15:48:11;16.40;99.90
52301;DHT22;38528;53.214;6.562;2022-10-31T15:50:41;16.20;99.90
52301;DHT22;38528;53.214;6.562;2022-10-31T15:53:19;16.10;99.90
52301;DHT22;38528;53.214;6.562;2022-10-31T15:55:50;16.20;99.90
52301;DHT22;38528;53.214;6.562;2022-10-31T15:58:20;16.10;99.90
52301;DHT22;38528;53.214;6.562;2022-10-31T16:00:58;16.10;99.90
52301;DHT22;38528;53.214;6.562;2022-10-31T16:03:27;16.00;99.90
52301;DHT22;38528;53.214;6.562;2022-10-31T16:06:04;16.00;99.90
52301;DHT22;38528;53.214;6.562;2022-10-31T16:13:34;15.80;99.90
52301;DHT22;38528;53.214;6.562;2022-10-31T16:16:03;15.80;99.90
52301;DHT22;38528;53.214;6.562;2022-10-31T16:18:34;15.70;99.90
52301;DHT22;38528;53.214;6.562;2022-10-31T16:21:02;15.70;99.90
52301;DHT22;38528;53.214;6.562;2022-10-31T16:23:28;15.70;99.90
52301;DHT22;38528;53.214;6.562;2022-10-31T16:25:54;15.60;99.90
52301;DHT22;38528;53.214;6.562;2022-10-31T16:28:23;15.60;99.90
52301;DHT22;38528;53.214;6.562;2022-10-31T16:30:51;15.60;99.90
52301;DHT22;38528;53.214;6.562;2022-10-31T16:33:28;15.60;99.90
52301;DHT22;38528;53.214;6.562;2022-10-31T16:35:59;15.60;99.90
52301;DHT22;38528;53.214;6.562;2022-10-31T16:38:27;14.70;99.90
52301;DHT22;38528;53.214;6.562;2022-10-31T16:40:53;15.50;99.90
52301;DHT22;38528;53.214;6.562;2022-10-31T16:43:21;15.50;99.90
52301;DHT22;38528;53.214;6.562;2022-10-31T16:45:50;15.40;99.90
52301;DHT22;38528;53.214;6.562;2022-10-31T16:48:20;15.30;99.90
52301;DHT22;38528;53.214;6.562;2022-10-31T16:50:47;15.40;99.90
52301;DHT22;38528;53.214;6.562;2022-10-31T16:53:14;15.30;99.90
52301;DHT22;38528;53.214;6.562;2022-10-31T16:58:27;15.30;99.90
52301;DHT22;38528;53.214;6.562;2022-10-31T17:00:56;15.30;99.90
52301;DHT22;38528;53.214;6.562;2022-10-31T17:03:22;15.20;99.90
52301;DHT22;38528;53.214;6.562;2022-10-31T17:05:48;15.20;99.90
52301;DHT22;38528;53.214;6.562;2022-10-31T17:08:14;15.20;99.90
52301;DHT22;38528;53.214;6.562;2022-10-31T17:10:41;15.20;99.90
52301;DHT22;38528;53.214;6.562;2022-10-31T17:13:13;15.20;99.90
52301;DHT22;38528;53.214;6.562;2022-10-31T17:15:45;15.10;99.90
52301;DHT22;38528;53.214;6.562;2022-10-31T17:18:13;15.10;99.90
52301;DHT22;38528;53.214;6.562;2022-10-31T17:20:39;15.10;99.90
52301;DHT22;38528;53.214;6.562;2022-10-31T17:23:05;15.10;99.90
52301;DHT22;38528;53.214;6.562;2022-10-31T17:25:31;15.10;99.90
52301;DHT22;38528;53.214;6.562;2022-10-31T17:27:57;15.10;99.90
52301;DHT22;38528;53.214;6.562;2022-10-31T17:30:24;15.10;99.90
52301;DHT22;38528;53.214;6.562;2022-10-31T17:32:50;15.10;99.90
52301;DHT22;38528;53.214;6.562;2022-10-31T17:35:17;15.00;99.90
52301;DHT22;38528;53.214;6.562;2022-10-31T17:37:44;15.00;99.90
52301;DHT22;38528;53.214;6.562;2022-10-31T17:40:20;14.90;99.90
52301;DHT22;38528;53.214;6.562;2022-10-31T17:42:56;14.90;99.90
52301;DHT22;38528;53.214;6.562;2022-10-31T17:45:24;14.90;99.90
52301;DHT22;38528;53.214;6.562;2022-10-31T17:47:51;14.90;99.90
52301;DHT22;38528;53.214;6.562;2022-10-31T17:50:19;14.90;99.90
52301;DHT22;38528;53.214;6.562;2022-10-31T17:52:46;14.90;99.90
52301;DHT22;38528;53.214;6.562;2022-10-31T17:55:12;14.90;99.90
52301;DHT22;38528;53.214;6.562;2022-10-31T17:57:38;14.90;99.90
52301;DHT22;38528;53.214;6.562;2022-10-31T18:00:06;14.80;99.90
52301;DHT22;38528;53.214;6.562;2022-10-31T18:02:32;14.90;99.90
52301;DHT22;38528;53.214;6.562;2022-10-31T18:04:58;14.80;99.90
52301;DHT22;38528;53.214;6.562;2022-10-31T18:07:27;14.80;99.90
52301;DHT22;38528;53.214;6.562;2022-10-31T18:09:53;14.80;99.90
52301;DHT22;38528;53.214;6.562;2022-10-31T18:12:19;14.80;99.90
52301;DHT22;38528;53.214;6.562;2022-10-31T18:14:44;14.80;99.90
52301;DHT22;38528;53.214;6.562;2022-10-31T18:17:10;14.80;99.90
52301;DHT22;38528;53.214;6.562;2022-10-31T18:19:36;14.80;99.90
52301;DHT22;38528;53.214;6.562;2022-10-31T18:22:01;14.70;99.90
52301;DHT22;38528;53.214;6.562;2022-10-31T18:24:27;14.70;99.90
52301;DHT22;38528;53.214;6.562;2022-10-31T18:26:53;14.70;99.90
52301;DHT22;38528;53.214;6.562;2022-10-31T18:29:19;14.70;99.90
52301;DHT22;38528;53.214;6.562;2022-10-31T18:31:45;14.80;99.90
52301;DHT22;38528;53.214;6.562;2022-10-31T18:34:13;14.70;99.90
52301;DHT22;38528;53.214;6.562;2022-10-31T18:36:39;14.70;99.90
52301;DHT22;38528;53.214;6.562;2022-10-31T18:39:05;14.70;99.90
52301;DHT22;38528;53.214;6.562;2022-10-31T18:41:31;14.70;99.90
52301;DHT22;38528;53.214;6.562;2022-10-31T18:43:57;14.70;99.90
52301;DHT22;38528;53.214;6.562;2022-10-31T18:46:26;14.70;99.90
52301;DHT22;38528;53.214;6.562;2022-10-31T18:48:52;14.70;99.90
52301;DHT22;38528;53.214;6.562;2022-10-31T18:51:18;14.60;99.90
52301;DHT22;38528;53.214;6.562;2022-10-31T18:53:57;14.60;99.90
52301;DHT22;38528;53.214;6.562;2022-10-31T18:56:23;14.70;99.90
52301;DHT22;38528;53.214;6.562;2022-10-31T18:58:49;14.60;99.90
52301;DHT22;38528;53.214;6.562;2022-10-31T19:01:17;14.60;99.90
52301;DHT22;38528;53.214;6.562;2022-10-31T19:03:43;14.60;99.90
52301;DHT22;38528;53.214;6.562;2022-10-31T19:06:09;14.60;99.90
52301;DHT22;38528;53.214;6.562;2022-10-31T19:08:38;14.60;99.90
52301;DHT22;38528;53.214;6.562;2022-10-31T19:11:09;14.50;99.90
52301;DHT22;38528;53.214;6.562;2022-10-31T19:13:37;14.50;99.90
52301;DHT22;38528;53.214;6.562;2022-10-31T19:16:04;14.60;99.90
52301;DHT22;38528;53.214;6.562;2022-10-31T19:18:30;14.50;99.90
52301;DHT22;38528;53.214;6.562;2022-10-31T19:20:56;14.50;99.90
52301;DHT22;38528;53.214;6.562;2022-10-31T19:23:21;14.50;99.90
52301;DHT22;38528;53.214;6.562;2022-10-31T19:25:47;14.50;99.90
52301;DHT22;38528;53.214;6.562;2022-10-31T19:28:13;14.50;99.90
52301;DHT22;38528;53.214;6.562;2022-10-31T19:30:38;14.50;99.90
52301;DHT22;38528;53.214;6.562;2022-10-31T19:33:04;14.50;99.90
52301;DHT22;38528;53.214;6.562;2022-10-31T19:35:30;14.50;99.90
52301;DHT22;38528;53.214;6.562;2022-10-31T19:37:55;14.40;99.90
52301;DHT22;38528;53.214;6.562;2022-10-31T19:40:21;14.40;99.90
52301;DHT22;38528;53.214;6.562;2022-10-31T19:42:47;14.30;99.90
52301;DHT22;38528;53.214;6.562;2022-10-31T19:45:12;14.30;99.90
52301;DHT22;38528;53.214;6.562;2022-10-31T19:47:38;14.30;99.90
52301;DHT22;38528;53.214;6.562;2022-10-31T19:50:04;14.30;99.90
52301;DHT22;38528;53.214;6.562;2022-10-31T19:52:34;14.30;99.90
52301;DHT22;38528;53.214;6.562;2022-10-31T19:54:59;14.30;99.90
52301;DHT22;38528;53.214;6.562;2022-10-31T19:57:25;14.20;99.90
52301;DHT22;38528;53.214;6.562;2022-10-31T19:59:51;14.20;99.90
52301;DHT22;38528;53.214;6.562;2022-10-31T20:02:16;14.20;99.90
52301;DHT22;38528;53.214;6.562;2022-10-31T20:04:45;14.20;99.90
52301;DHT22;38528;53.214;6.562;2022-10-31T20:07:11;14.20;99.90
52301;DHT22;38528;53.214;6.562;2022-10-31T20:09:37;14.20;99.90
52301;DHT22;38528;53.214;6.562;2022-10-31T20:12:03;14.20;99.90
52301;DHT22;38528;53.214;6.562;2022-10-31T20:14:29;14.20;99.90
52301;DHT22;38528;53.214;6.562;2022-10-31T20:16:54;14.20;99.90
52301;DHT22;38528;53.214;6.562;2022-10-31T20:19:20;14.20;99.90
52301;DHT22;38528;53.214;6.562;2022-10-31T20:21:46;14.20;99.90
52301;DHT22;38528;53.214;6.562;2022-10-31T20:24:12;14.20;99.90
52301;DHT22;38528;53.214;6.562;2022-10-31T20:26:39;14.20;99.90
52301;DHT22;38528;53.214;6.562;2022-10-31T20:29:05;14.20;99.90
52301;DHT22;38528;53.214;6.562;2022-10-31T20:31:33;14.10;99.90
52301;DHT22;38528;53.214;6.562;2022-10-31T20:34:00;14.20;99.90
52301;DHT22;38528;53.214;6.562;2022-10-31T20:36:26;14.10;99.90
52301;DHT22;38528;53.214;6.562;2022-10-31T20:38:53;14.10;99.90
52301;DHT22;38528;53.214;6.562;2022-10-31T20:41:20;14.20;99.90
52301;DHT22;38528;53.214;6.562;2022-10-31T20:43:45;14.10;99.90
52301;DHT22;38528;53.214;6.562;2022-10-31T20:46:14;14.10;99.90
52301;DHT22;38528;53.214;6.562;2022-10-31T20:48:40;14.10;99.90
52301;DHT22;38528;53.214;6.562;2022-10-31T20:51:11;14.00;99.90
52301;DHT22;38528;53.214;6.562;2022-10-31T20:53:37;14.00;99.90
52301;DHT22;38528;53.214;6.562;2022-10-31T20:56:08;13.90;99.90
52301;DHT22;38528;53.214;6.562;2022-10-31T20:58:35;13.90;99.90
52301;DHT22;38528;53.214;6.562;2022-10-31T21:01:02;13.90;99.90
52301;DHT22;38528;53.214;6.562;2022-10-31T21:03:28;13.90;99.90
52301;DHT22;38528;53.214;6.562;2022-10-31T21:05:59;13.90;99.90
52301;DHT22;38528;53.214;6.562;2022-10-31T21:08:26;13.80;99.90
52301;DHT22;38528;53.214;6.562;2022-10-31T21:10:52;13.80;99.90
52301;DHT22;38528;53.214;6.562;2022-10-31T21:13:18;13.90;99.90
52301;DHT22;38528;53.214;6.562;2022-10-31T21:15:44;14.50;99.90
52301;DHT22;38528;53.214;6.562;2022-10-31T21:18:10;13.80;99.90
52301;DHT22;38528;53.214;6.562;2022-10-31T21:20:40;13.80;99.90
52301;DHT22;38528;53.214;6.562;2022-10-31T21:23:09;13.80;99.90
52301;DHT22;38528;53.214;6.562;2022-10-31T21:25:37;13.80;99.90
52301;DHT22;38528;53.214;6.562;2022-10-31T21:28:03;13.80;99.90
52301;DHT22;38528;53.214;6.562;2022-10-31T21:30:29;13.80;99.90
52301;DHT22;38528;53.214;6.562;2022-10-31T21:32:55;13.80;99.90
52301;DHT22;38528;53.214;6.562;2022-10-31T21:35:21;13.80;99.90
52301;DHT22;38528;53.214;6.562;2022-10-31T21:37:46;13.70;99.90
52301;DHT22;38528;53.214;6.562;2022-10-31T21:40:12;13.80;99.90
52301;DHT22;38528;53.214;6.562;2022-10-31T21:42:37;13.70;99.90
52301;DHT22;38528;53.214;6.562;2022-10-31T21:45:03;13.70;99.90
52301;DHT22;38528;53.214;6.562;2022-10-31T21:47:29;13.70;99.90
52301;DHT22;38528;53.214;6.562;2022-10-31T21:49:55;13.70;99.90
52301;DHT22;38528;53.214;6.562;2022-10-31T21:52:21;13.20;99.90
52301;DHT22;38528;53.214;6.562;2022-10-31T21:54:47;13.70;99.90
52301;DHT22;38528;53.214;6.562;2022-10-31T21:57:12;13.70;99.90
52301;DHT22;38528;53.214;6.562;2022-10-31T21:59:38;13.60;99.90